Cape Providence — 3EWQ — position and weather

sailwx.info

Track history (hours):
 
Tides and Currents Weather Stations Pressure Air Temp Water Temp Dewpoint Dewpoint Depression Visibility Wind Speed Wind Dir Waves Ship Positions

Cape Providence

Last reported at 2015-Jul-29 10:25 UTC. Time now 2015-Aug-01 07:49 UTC.
Position N 03°44' E 100°00'.

Length 292 m; draft 12.4 m.

Type: Cargo ship. MMSI: 372773000.

Date/timePositionNaut miles runAvg speedWind from/ knotsBaromVisibWave heightAir tempDewpointWater temp
2015-Jul-29 10:25N 03°44' E 100°00'4812.1
2015-Jul-29 06:26N 03°12' E 100°37'1011.7
2015-Jul-29 05:33N 03°05' E 100°44'2411.9
2015-Jul-29 03:33N 02°49' E 101°02'4912.4
2015-Jul-28 23:33N 02°23' E 101°45'13512.1
2015-Jul-28 12:22N 01°11' E 103°39'910.6
2015-Jul-28 11:33N 01°10' E 103°48'1110.8
2015-Jul-28 10:33N 01°16' E 103°57'2 1.9
2015-Jul-28 09:20N 01°17' E 103°55'0 0.0
2015-Jul-28 08:32N 01°17' E 103°55'0 0.1
2015-Jul-28 07:26N 01°17' E 103°55'0 0.0
2015-Jul-28 06:26N 01°17' E 103°55'0 0.0
2015-Jul-28 05:26N 01°17' E 103°55'0 0.0
2015-Jul-28 04:26N 01°17' E 103°55'0 0.0
2015-Jul-28 03:26N 01°17' E 103°55'0 0.0
2015-Jul-28 02:32N 01°17' E 103°55'0 0.0
2015-Jul-28 01:32N 01°17' E 103°55'0 0.0
2015-Jul-28 00:32N 01°17' E 103°55'0 0.0
2015-Jul-27 23:32N 01°17' E 103°55'0 0.0
2015-Jul-27 22:23N 01°17' E 103°55'0 0.1
2015-Jul-27 21:23N 01°17' E 103°55'0 0.2
2015-Jul-27 20:29N 01°17' E 103°56'0 0.1
2015-Jul-27 19:32N 01°17' E 103°56'0 0.0
2015-Jul-27 18:32N 01°17' E 103°56'0 0.0
2015-Jul-27 17:32N 01°17' E 103°56'0 0.1
2015-Jul-27 16:26N 01°17' E 103°56'0 0.0
2015-Jul-27 15:32N 01°17' E 103°56'0 0.0
2015-Jul-27 14:32N 01°17' E 103°56'0 0.1
2015-Jul-27 13:32N 01°17' E 103°56'0 0.1
2015-Jul-27 12:32N 01°17' E 103°56'0 0.1
2015-Jul-27 11:32N 01°17' E 103°56'1 0.7
2015-Jul-27 10:33N 01°17' E 103°55'4 3.8
2015-Jul-27 09:33N 01°16' E 103°59'5 4.7
2015-Jul-27 08:33N 01°16' E 104°04'6 6.3
2015-Jul-27 07:33N 01°17' E 104°10'  
Track history (hours):
 
Tides and Currents Weather Stations Pressure Air Temp Water Temp Dewpoint Dewpoint Depression Visibility Wind Speed Wind Dir Waves Ship Positions

Cape Providence

Last reported at 2015-Jul-29 10:25 UTC. Time now 2015-Aug-01 07:49 UTC.
Position N 03°44' E 100°00'.

Length 292 m; draft 12.4 m.

Type: Cargo ship. MMSI: 372773000.

Date/timePositionNaut miles runAvg speedWind from/ knotsBaromVisibWave heightAir tempDewpointWater temp
2015-Jul-29 10:25N 03°44' E 100°00'4812.1
2015-Jul-29 06:26N 03°12' E 100°37'1011.7
2015-Jul-29 05:33N 03°05' E 100°44'2411.9
2015-Jul-29 03:33N 02°49' E 101°02'4912.4
2015-Jul-28 23:33N 02°23' E 101°45'13512.1
2015-Jul-28 12:22N 01°11' E 103°39'910.6
2015-Jul-28 11:33N 01°10' E 103°48'1110.8
2015-Jul-28 10:33N 01°16' E 103°57'2 1.9
2015-Jul-28 09:20N 01°17' E 103°55'0 0.0
2015-Jul-28 08:32N 01°17' E 103°55'0 0.1
2015-Jul-28 07:26N 01°17' E 103°55'0 0.0
2015-Jul-28 06:26N 01°17' E 103°55'0 0.0
2015-Jul-28 05:26N 01°17' E 103°55'0 0.0
2015-Jul-28 04:26N 01°17' E 103°55'0 0.0
2015-Jul-28 03:26N 01°17' E 103°55'0 0.0
2015-Jul-28 02:32N 01°17' E 103°55'0 0.0
2015-Jul-28 01:32N 01°17' E 103°55'0 0.0
2015-Jul-28 00:32N 01°17' E 103°55'0 0.0
2015-Jul-27 23:32N 01°17' E 103°55'0 0.0
2015-Jul-27 22:23N 01°17' E 103°55'0 0.1
2015-Jul-27 21:23N 01°17' E 103°55'0 0.2
2015-Jul-27 20:29N 01°17' E 103°56'0 0.1
2015-Jul-27 19:32N 01°17' E 103°56'0 0.0
2015-Jul-27 18:32N 01°17' E 103°56'0 0.0
2015-Jul-27 17:32N 01°17' E 103°56'0 0.1
2015-Jul-27 16:26N 01°17' E 103°56'0 0.0
2015-Jul-27 15:32N 01°17' E 103°56'0 0.0
2015-Jul-27 14:32N 01°17' E 103°56'0 0.1
2015-Jul-27 13:32N 01°17' E 103°56'0 0.1
2015-Jul-27 12:32N 01°17' E 103°56'0 0.1
2015-Jul-27 11:32N 01°17' E 103°56'1 0.7
2015-Jul-27 10:33N 01°17' E 103°55'4 3.8
2015-Jul-27 09:33N 01°16' E 103°59'5 4.7
2015-Jul-27 08:33N 01°16' E 104°04'6 6.3
2015-Jul-27 07:33N 01°17' E 104°10'  

Dump ship's entire track history